地図

経路データ

SID SEASON NUMBER BASIN SUBBASIN NAME ISO_TIME NATURE LAT LON WMO_WIND WMO_PRES WMO_AGENCY TRACK_TYPE DIST2LAND LANDFALL IFLAG USA_AGENCY USA_ATCF_ID USA_LAT USA_LON USA_RECORD USA_STATUS USA_WIND USA_PRES USA_SSHS USA_R34_NE USA_R34_SE USA_R34_SW USA_R34_NW USA_R50_NE USA_R50_SE USA_R50_SW USA_R50_NW USA_R64_NE USA_R64_SE USA_R64_SW USA_R64_NW USA_POCI USA_ROCI USA_RMW USA_EYE TOKYO_LAT TOKYO_LON TOKYO_GRADE TOKYO_WIND TOKYO_PRES TOKYO_R50_DIR TOKYO_R50_LONG TOKYO_R50_SHORT TOKYO_R30_DIR TOKYO_R30_LONG TOKYO_R30_SHORT TOKYO_LAND CMA_LAT CMA_LON CMA_CAT CMA_WIND CMA_PRES HKO_LAT HKO_LON HKO_CAT HKO_WIND HKO_PRES NEWDELHI_LAT NEWDELHI_LON NEWDELHI_GRADE NEWDELHI_WIND NEWDELHI_PRES NEWDELHI_CI NEWDELHI_DP NEWDELHI_POCI REUNION_LAT REUNION_LON REUNION_TYPE REUNION_WIND REUNION_PRES REUNION_TNUM REUNION_CI REUNION_RMW REUNION_R34_NE REUNION_R34_SE REUNION_R34_SW REUNION_R34_NW REUNION_R50_NE REUNION_R50_SE REUNION_R50_SW REUNION_R50_NW REUNION_R64_NE REUNION_R64_SE REUNION_R64_SW REUNION_R64_NW BOM_LAT BOM_LON BOM_TYPE BOM_WIND BOM_PRES BOM_TNUM BOM_CI BOM_RMW BOM_R34_NE BOM_R34_SE BOM_R34_SW BOM_R34_NW BOM_R50_NE BOM_R50_SE BOM_R50_SW BOM_R50_NW BOM_R64_NE BOM_R64_SE BOM_R64_SW BOM_R64_NW BOM_ROCI BOM_POCI BOM_EYE BOM_POS_METHOD BOM_PRES_METHOD NADI_LAT NADI_LON NADI_CAT NADI_WIND NADI_PRES WELLINGTON_LAT WELLINGTON_LON WELLINGTON_WIND WELLINGTON_PRES DS824_LAT DS824_LON DS824_STAGE DS824_WIND DS824_PRES TD9636_LAT TD9636_LON TD9636_STAGE TD9636_WIND TD9636_PRES TD9635_LAT TD9635_LON TD9635_WIND TD9635_PRES TD9635_ROCI NEUMANN_LAT NEUMANN_LON NEUMANN_CLASS NEUMANN_WIND NEUMANN_PRES MLC_LAT MLC_LON MLC_CLASS MLC_WIND MLC_PRES USA_GUST BOM_GUST BOM_GUST_PER REUNION_GUST REUNION_GUST_PER USA_SEAHGT USA_SEARAD_NE USA_SEARAD_SE USA_SEARAD_SW USA_SEARAD_NW STORM_SPEED STORM_DIR
1896269N11280 1896 37 NA CS NOT_NAMED 1896-09-24 12:00:00 TS 11.2000 -80.2000 spur-merge 198 198 _____________O -1 11.2000 -80.2000 TS 35 5 306
1896269N11280 1896 37 NA CS NOT_NAMED 1896-09-24 15:00:00 TS 11.3500 -80.4099 spur-merge 226 226 _____________P -1 11.3500 -80.4099 TS 37 5 308
1896269N11280 1896 37 NA CS NOT_NAMED 1896-09-24 18:00:00 TS 11.5000 -80.6000 spur-merge 244 244 _____________O -1 11.5000 -80.6000 TS 40 5 311
1896269N11280 1896 37 NA CS NOT_NAMED 1896-09-24 21:00:00 TS 11.6500 -80.7575 spur-merge 264 264 _____________P -1 11.6500 -80.7575 TS 42 4 316
1896269N11280 1896 37 NA CS NOT_NAMED 1896-09-25 00:00:00 TS 11.8000 -80.9000 spur-merge 289 277 _____________O -1 11.8000 -80.9000 TS 45 4 315
1896269N11280 1896 37 NA CS NOT_NAMED 1896-09-25 03:00:00 TS 11.9350 -81.0500 spur-merge 267 252 _____________P -1 11.9350 -81.0500 TS 45 4 316
1896269N11280 1896 37 NA CS NOT_NAMED 1896-09-25 06:00:00 TS 12.1000 -81.2000 spur-merge 252 239 _____________O -1 12.1000 -81.2000 TS 45 5 327
1896269N11280 1896 37 NA CS NOT_NAMED 1896-09-25 09:00:00 TS 12.3424 -81.3201 spur-merge 239 217 _____________P -1 12.3424 -81.3201 TS 45 6 330
1896269N11280 1896 37 NA CS NOT_NAMED 1896-09-25 12:00:00 TS 12.6000 -81.5000 spur-merge 217 184 _____________O -1 12.6000 -81.5000 TS 45 7 312
1896269N11280 1896 37 NA CS NOT_NAMED 1896-09-25 15:00:00 TS 12.7851 -81.8276 spur-merge 184 140 _____________P -1 12.7851 -81.8276 TS 45 8 300
1896269N11280 1896 37 NA CS NOT_NAMED 1896-09-25 18:00:00 TS 13.0000 -82.2000 spur-merge 140 108 _____________O -1 13.0000 -82.2000 TS 45 9 310
1896269N11280 1896 37 NA CS NOT_NAMED 1896-09-25 21:00:00 TS 13.3349 -82.5075 spur-merge 108 72 _____________P -1 13.3349 -82.5075 TS 45 9 320
1896269N11280 1896 37 NA CS NOT_NAMED 1896-09-26 00:00:00 TS 13.7000 -82.8000 spur-merge 72 31 _____________O -1 13.7000 -82.8000 TS 45 9 319
1896269N11280 1896 37 NA CS NOT_NAMED 1896-09-26 03:00:00 TS 14.0000 -83.1001 spur-merge 31 0 _____________P -1 14.0000 -83.1001 TS 45 8 316
1896269N11280 1896 37 NA NA NOT_NAMED 1896-09-26 06:00:00 TS 14.3000 -83.4000 spur-merge 0 0 _____________O -1 14.3000 -83.4000 TS 45 9 315
1896269N11280 1896 37 NA NA NOT_NAMED 1896-09-26 09:00:00 TS 14.6125 -83.7225 spur-merge 0 0 _____________P -1 14.6125 -83.7225 TS 45 9 320
1896269N11280 1896 37 NA NA NOT_NAMED 1896-09-26 12:00:00 TS 15.0000 -84.0000 spur-merge 0 0 _____________O -1 15.0000 -84.0000 TS 45 10 335
1896269N11280 1896 37 NA CS NOT_NAMED 1896-09-26 15:00:00 TS 15.5274 -84.1726 spur-merge 0 0 _____________P -1 15.5274 -84.1726 TS 47 11 345
1896269N11280 1896 37 NA CS NOT_NAMED 1896-09-26 18:00:00 TS 16.1000 -84.3000 spur-merge 33 33 _____________O -1 16.1000 -84.3000 TS 50 11 346
1896269N11280 1896 37 NA CS NOT_NAMED 1896-09-26 21:00:00 TS 16.6000 -84.4501 spur-merge 81 81 _____________P -1 16.6000 -84.4501 TS 52 10 344
1896269N11280 1896 37 NA CS NOT_NAMED 1896-09-27 00:00:00 TS 17.1000 -84.6000 spur-merge 134 134 _____________O -1 17.1000 -84.6000 TS 55 11 345
1896269N11280 1896 37 NA CS NOT_NAMED 1896-09-27 03:00:00 TS 17.6500 -84.7501 spur-merge 201 190 _____________P -1 17.6375 -84.7498 TS 57 11 345
1896269N11280 1896 37 NA CS NOT_NAMED 1896-09-27 06:00:00 TS 18.2000 -84.9000 spur-merge 257 _____________O -1 18.2000 -84.9000 TS 60 11 346

IBTrACS Databaseについて

本データベースは、米国NOAAが公開する1842年以降の世界の熱帯低気圧のベストトラックデータアーカイブInternational Best Track Archive for Climate Stewardship (IBTrACS)を、ウェブで閲覧しやすい形式に変換したものです。

最終更新日:2021-11-26